Home   Weather   Poland   Częstochowa   Past weeks
Flag for Poland

Past Weather in Częstochowa, Poland — Yesterday and Last 2 Weeks

Currently: 66 °F. Scattered clouds. (Weather station: Katowice Airport, Poland). See more current weather

Past Weather in Częstochowa — Graph

°F

Częstochowa Temperature Yesterday

Maximum temperature yesterday: 86 °F (at 1:00 pm)
Minimum temperature yesterday: 57 °F (at 4:00 am)
Average temperature yesterday: 72 °F

High & Low Weather Summary for the Past Weeks

 TemperatureHumidityPressure
High93 °F (Jul 10, 2:00 pm)100% (Jul 9, 1:30 am)30.21 "Hg (Jul 9, 1:30 am)
Low52 °F (Jul 20, 5:00 am)32% (Jul 10, 3:30 pm)29.74 "Hg (Jul 12, 10:30 pm)
Average72 °F73%30.00 "Hg
* Reported Jul 8 7:00 am — Jul 23 7:00 am, Częstochowa. Weather by CustomWeather, © 2024

Note: Actual official high and low records may vary slightly from our data, if they occured in-between our weather recording intervals... More about our weather records

Częstochowa Weather History for the Previous 24 Hours

Scroll right to see more
 ConditionsComfort  
Time TempWeatherWind HumidityBarometerVisibility
7:00 am
Tue, Jul 23
66 °FScattered clouds.10 mph83%30.07 "HgN/A
6:30 am66 °FScattered clouds.6 mph83%30.07 "HgN/A
6:00 am64 °FPartly sunny.5 mph88%30.07 "HgN/A
5:30 am64 °FSunny.5 mph88%30.07 "Hg10 mi
5:00 am66 °FPassing clouds.6 mph83%30.07 "HgN/A
4:30 am66 °FPassing clouds.5 mph88%30.07 "HgN/A
4:00 am66 °FClear.5 mph88%30.04 "Hg10 mi
3:30 am68 °FClear.5 mph83%30.04 "Hg10 mi
3:00 am68 °FClear.3 mph83%30.04 "Hg10 mi
2:30 am68 °FClear.2 mph88%30.04 "Hg10 mi
2:00 am68 °FClear.3 mph88%30.04 "Hg10 mi
1:30 am68 °FPassing clouds.5 mph88%30.04 "HgN/A
1:00 am70 °FPassing clouds.5 mph83%30.04 "HgN/A
12:30 am70 °FPassing clouds.5 mph83%30.04 "HgN/A
12:00 am70 °FClear.5 mph83%30.01 "Hg10 mi
11:30 pm
Mon, Jul 22
70 °FSprinkles. Passing clouds.6 mph83%30.01 "HgN/A
11:00 pm70 °FClear.3 mph78%30.01 "Hg10 mi
10:30 pm72 °FClear.5 mph73%30.01 "Hg10 mi
10:00 pm70 °FClear.6 mph78%30.01 "Hg10 mi
9:30 pm70 °FClear.5 mph78%29.98 "Hg10 mi
9:00 pm72 °FClear.2 mph69%29.98 "Hg10 mi
8:30 pm73 °FSunny.3 mph65%29.98 "Hg10 mi
8:00 pm73 °FSprinkles. Passing clouds.5 mph65%29.95 "HgN/A
7:30 pm75 °FPassing clouds.5 mph61%29.95 "HgN/A
7:00 pm77 °FSunny.8 mph57%29.95 "Hg10 mi
6:30 pm79 °FPassing clouds.8 mph61%29.92 "HgN/A
6:00 pm79 °FPassing clouds.8 mph54%29.92 "HgN/A
5:30 pm79 °FSunny.10 mph58%29.92 "Hg10 mi
5:00 pm79 °FPassing clouds.13 mph58%29.92 "HgN/A
4:30 pm81 °FSunny.14 mph54%29.89 "Hg10 mi
4:00 pm84 °FPassing clouds.3 mph37%29.89 "HgN/A
3:00 pm86 °FSunny.6 mph35%29.89 "Hg10 mi
2:30 pm86 °FSunny.3 mph35%29.89 "Hg10 mi
2:00 pm86 °FSunny.3 mph33%29.89 "Hg10 mi
1:30 pm86 °FPassing clouds.5 mph33%29.89 "HgN/A
1:00 pm86 °FPassing clouds.5 mph35%29.89 "HgN/A
12:30 pm84 °FSunny.3 mph43%29.92 "Hg10 mi
12:00 pm84 °FSunny.3 mph40%29.89 "Hg10 mi
11:30 am82 °FPassing clouds.6 mph45%29.89 "HgN/A
11:00 am82 °FPassing clouds.6 mph48%29.89 "HgN/A
10:30 am81 °FPassing clouds.3 mph54%29.89 "HgN/A
10:00 am79 °FPassing clouds.5 mph54%29.89 "HgN/A
9:00 am77 °FPassing clouds.5 mph61%29.89 "HgN/A
8:30 am75 °FSunny.5 mph65%29.89 "Hg10 mi
8:00 am73 °FPassing clouds.3 mph74%29.89 "HgN/A
Weather by CustomWeather, © 2024

See weather overview